createdAt,value
2018-05-25T00:01:10.399Z,15.58
2018-05-25T00:03:38.919Z,15.53
2018-05-25T00:06:07.756Z,15.52
2018-05-25T00:08:36.131Z,15.54
2018-05-25T00:11:04.482Z,15.50
2018-05-25T00:13:33.208Z,15.57
2018-05-25T00:16:01.506Z,15.64
2018-05-25T00:18:29.822Z,15.55
2018-05-25T00:20:58.532Z,15.60
2018-05-25T00:23:26.841Z,15.50
2018-05-25T00:25:55.161Z,15.48
2018-05-25T00:28:23.771Z,15.53
2018-05-25T00:30:52.072Z,15.56
2018-05-25T00:33:20.434Z,15.53
2018-05-25T00:35:49.137Z,15.58
2018-05-25T00:38:17.528Z,15.59
2018-05-25T00:40:45.847Z,15.57
2018-05-25T00:43:14.283Z,15.64
2018-05-25T00:45:42.631Z,15.47
2018-05-25T00:48:10.982Z,15.53
2018-05-25T00:50:40.047Z,15.55
2018-05-25T00:53:08.426Z,15.55
2018-05-25T00:55:39.730Z,15.56
2018-05-25T00:58:08.124Z,15.47
2018-05-25T01:00:36.526Z,15.46
2018-05-25T01:03:04.831Z,15.53
2018-05-25T01:05:34.969Z,15.54
2018-05-25T01:08:03.301Z,15.54
2018-05-25T01:10:31.615Z,15.55
2018-05-25T01:13:00.160Z,15.57
2018-05-25T01:15:28.473Z,15.46
2018-05-25T01:17:56.799Z,15.43
2018-05-25T01:20:25.301Z,15.55
2018-05-25T01:22:53.621Z,15.43
2018-05-25T01:25:21.950Z,15.35
2018-05-25T01:27:51.315Z,15.35
2018-05-25T01:30:20.041Z,15.33
2018-05-25T01:32:48.442Z,15.40
2018-05-25T01:35:17.201Z,15.31
2018-05-25T01:37:45.625Z,15.32
2018-05-25T01:40:13.995Z,15.37
2018-05-25T01:42:42.387Z,15.37
2018-05-25T01:45:10.765Z,15.27
2018-05-25T01:47:39.152Z,15.23
2018-05-25T01:50:07.530Z,15.29
2018-05-25T01:52:35.994Z,15.35
2018-05-25T01:55:04.364Z,15.24
2018-05-25T01:57:33.267Z,15.28
2018-05-25T02:00:01.574Z,15.26
2018-05-25T02:02:29.882Z,15.22
2018-05-25T02:04:58.229Z,15.32
2018-05-25T02:07:26.579Z,15.16
2018-05-25T02:09:54.883Z,15.27
2018-05-25T02:12:23.215Z,15.30
2018-05-25T02:14:51.532Z,15.28
2018-05-25T02:17:19.873Z,15.33
2018-05-25T02:19:48.274Z,15.26
2018-05-25T02:22:16.630Z,15.18
2018-05-25T02:24:45.999Z,15.26
2018-05-25T02:27:14.980Z,15.12
2018-05-25T02:29:43.359Z,15.19
2018-05-25T02:32:11.694Z,15.05
2018-05-25T02:34:40.104Z,15.08
2018-05-25T02:37:08.467Z,15.05
2018-05-25T02:39:36.837Z,15.08
2018-05-25T02:42:05.326Z,15.16
2018-05-25T02:44:33.633Z,15.01
2018-05-25T02:47:01.968Z,14.92
2018-05-25T02:49:30.306Z,15.00
2018-05-25T02:51:58.630Z,15.01
2018-05-25T02:54:27.061Z,14.98
2018-05-25T02:56:55.896Z,14.97
2018-05-25T02:59:24.259Z,14.92
2018-05-25T03:01:52.567Z,14.87
2018-05-25T03:04:20.919Z,14.88
2018-05-25T03:06:49.262Z,14.86
2018-05-25T03:09:17.613Z,14.91
2018-05-25T03:11:46.049Z,14.78
2018-05-25T03:14:14.442Z,14.87
2018-05-25T03:16:42.774Z,14.91
2018-05-25T03:19:11.213Z,14.95
2018-05-25T03:21:39.545Z,14.88
2018-05-25T03:24:07.949Z,14.86
2018-05-25T03:26:37.190Z,14.78
2018-05-25T03:29:05.497Z,14.77
2018-05-25T03:31:33.813Z,14.78
2018-05-25T03:34:04.294Z,14.84
2018-05-25T03:36:33.541Z,14.74
2018-05-25T03:39:01.975Z,14.83
2018-05-25T03:41:30.300Z,14.81
2018-05-25T03:43:58.599Z,14.87
2018-05-25T03:46:26.918Z,14.89
2018-05-25T03:48:55.282Z,14.87
2018-05-25T03:51:23.579Z,14.92
2018-05-25T03:53:51.959Z,14.94
2018-05-25T03:56:20.805Z,14.99
2018-05-25T03:59:01.101Z,15.09
2018-05-25T04:01:42.149Z,15.13
2018-05-25T04:04:10.469Z,15.21
2018-05-25T04:06:38.947Z,15.24
2018-05-25T04:09:07.608Z,15.23
2018-05-25T04:11:38.147Z,15.26
2018-05-25T04:14:07.495Z,15.26
2018-05-25T04:16:35.963Z,15.23
2018-05-25T04:19:04.397Z,15.19
2018-05-25T04:21:32.722Z,15.19
2018-05-25T04:24:01.053Z,15.18
2018-05-25T04:26:29.371Z,15.18
2018-05-25T04:28:57.686Z,15.28
2018-05-25T04:31:26.921Z,15.32
2018-05-25T04:33:55.234Z,15.34
2018-05-25T04:36:23.540Z,15.37
2018-05-25T04:38:52.570Z,15.43
2018-05-25T04:41:20.921Z,15.52
2018-05-25T04:43:49.327Z,15.54
2018-05-25T04:46:17.735Z,15.57
2018-05-25T04:48:46.056Z,15.62
2018-05-25T04:51:14.387Z,15.60
2018-05-25T04:53:42.944Z,15.65
2018-05-25T04:56:11.328Z,15.66
2018-05-25T04:58:39.668Z,15.69
2018-05-25T05:01:08.598Z,15.80
2018-05-25T05:03:36.937Z,15.89
2018-05-25T05:06:05.282Z,15.87
2018-05-25T05:08:33.747Z,15.91
2018-05-25T05:11:02.065Z,16.13
2018-05-25T05:13:30.376Z,16.26
2018-05-25T05:16:00.298Z,16.39
2018-05-25T05:18:28.609Z,16.50
2018-05-25T05:20:56.916Z,16.58
2018-05-25T05:23:25.266Z,16.73
2018-05-25T05:25:53.641Z,16.83
2018-05-25T05:28:21.959Z,16.96
2018-05-25T05:30:50.566Z,17.03
2018-05-25T05:33:19.073Z,17.05
2018-05-25T05:35:47.509Z,17.10
2018-05-25T05:38:15.876Z,17.17
2018-05-25T05:40:44.209Z,17.25
2018-05-25T05:43:12.593Z,17.22
2018-05-25T05:45:40.971Z,17.09
2018-05-25T05:48:09.394Z,17.17
2018-05-25T05:50:37.791Z,17.36
2018-05-25T05:53:07.017Z,17.46
2018-05-25T05:55:35.325Z,17.57
2018-05-25T05:58:03.648Z,17.77
2018-05-25T06:00:32.228Z,17.76
2018-05-25T06:03:00.561Z,17.86
2018-05-25T06:05:28.882Z,17.96
2018-05-25T06:07:57.242Z,17.97
2018-05-25T06:10:25.554Z,18.06
2018-05-25T06:12:53.883Z,18.16
2018-05-25T06:15:22.249Z,18.23
2018-05-25T06:17:50.550Z,18.36
2018-05-25T06:20:18.874Z,18.44
2018-05-25T06:22:47.209Z,18.67
2018-05-25T06:25:15.580Z,18.82
2018-05-25T06:27:43.951Z,18.95
2018-05-25T06:30:12.320Z,18.88
2018-05-25T06:32:40.668Z,18.75
2018-05-25T06:35:09.076Z,18.83
2018-05-25T06:37:37.516Z,18.90
2018-05-25T06:40:05.843Z,18.85
2018-05-25T06:42:34.158Z,19.08
2018-05-25T06:45:04.357Z,19.32
2018-05-25T06:47:32.725Z,19.32
2018-05-25T06:50:01.031Z,19.39
2018-05-25T06:52:29.391Z,19.42
2018-05-25T06:54:58.459Z,19.43
2018-05-25T06:57:26.978Z,19.38
2018-05-25T06:59:56.791Z,19.27
2018-05-25T07:02:25.106Z,19.50
2018-05-25T07:04:53.439Z,19.61
2018-05-25T07:07:21.875Z,19.66
2018-05-25T07:09:50.181Z,19.89
2018-05-25T07:12:18.505Z,19.90
2018-05-25T07:14:46.895Z,19.88
2018-05-25T07:17:15.222Z,20.10
2018-05-25T07:19:43.622Z,20.19
2018-05-25T07:22:12.286Z,20.22
2018-05-25T07:24:40.600Z,20.30
2018-05-25T07:27:09.081Z,20.19
2018-05-25T07:29:37.853Z,20.33
2018-05-25T07:32:06.205Z,20.44
2018-05-25T07:34:34.503Z,20.63
2018-05-25T07:37:03.185Z,20.61
2018-05-25T07:39:31.497Z,20.63
2018-05-25T07:41:59.822Z,20.71
2018-05-25T07:44:28.897Z,20.67
2018-05-25T07:46:57.211Z,20.85
2018-05-25T07:49:25.542Z,20.81
2018-05-25T07:51:54.051Z,21.00
2018-05-25T07:54:22.361Z,21.15
2018-05-25T07:56:50.834Z,20.97
2018-05-25T07:59:19.572Z,20.86
2018-05-25T08:01:48.080Z,21.01
2018-05-25T08:04:16.431Z,21.07
2018-05-25T08:06:45.033Z,21.39
2018-05-25T08:09:13.672Z,21.43
2018-05-25T08:11:42.029Z,21.31
2018-05-25T08:14:10.717Z,21.40
2018-05-25T08:16:39.095Z,21.49
2018-05-25T08:19:08.084Z,21.64
2018-05-25T08:21:36.907Z,21.69
2018-05-25T08:24:05.218Z,21.74
2018-05-25T08:26:33.542Z,21.66
2018-05-25T08:29:02.824Z,21.77
2018-05-25T08:31:31.126Z,21.75
2018-05-25T08:33:59.507Z,21.93
2018-05-25T08:36:27.843Z,21.94
2018-05-25T08:38:56.157Z,21.93
2018-05-25T08:41:24.577Z,21.93
2018-05-25T08:43:53.319Z,22.13
2018-05-25T08:46:21.651Z,22.09
2018-05-25T08:48:49.969Z,22.14
2018-05-25T08:51:18.343Z,22.34
2018-05-25T08:53:46.685Z,22.14
2018-05-25T08:56:15.020Z,22.32
2018-05-25T08:58:43.513Z,22.45
2018-05-25T09:01:11.856Z,22.58
2018-05-25T09:03:40.298Z,22.65
2018-05-25T09:06:08.652Z,22.82
2018-05-25T09:08:37.059Z,22.60
2018-05-25T09:11:05.348Z,22.67
2018-05-25T09:13:34.629Z,22.67
2018-05-25T09:16:02.938Z,22.39
2018-05-25T09:18:31.243Z,22.56
2018-05-25T09:21:00.412Z,22.44
2018-05-25T09:23:28.717Z,22.82
2018-05-25T09:25:57.070Z,22.85
2018-05-25T09:28:25.474Z,22.96
2018-05-25T09:30:53.780Z,22.87
2018-05-25T09:33:22.091Z,23.16
2018-05-25T09:35:50.511Z,23.18
2018-05-25T09:38:18.806Z,23.63
2018-05-25T09:40:47.169Z,23.88
2018-05-25T09:43:15.780Z,24.26
2018-05-25T09:45:44.133Z,24.58
2018-05-25T09:48:12.486Z,25.13
2018-05-25T09:50:40.935Z,25.37
2018-05-25T09:53:09.345Z,25.54
2018-05-25T09:55:37.744Z,25.51
2018-05-25T09:58:07.351Z,26.05
2018-05-25T10:00:35.718Z,26.68
2018-05-25T10:03:04.051Z,26.64
2018-05-25T10:05:33.246Z,27.10
2018-05-25T10:08:02.374Z,27.90
2018-05-25T10:10:30.723Z,28.00
2018-05-25T10:12:59.077Z,28.13
2018-05-25T10:15:27.392Z,27.70
2018-05-25T10:17:55.748Z,27.26
2018-05-25T10:20:24.046Z,27.32
2018-05-25T10:22:52.351Z,27.76
2018-05-25T10:25:20.700Z,27.97
2018-05-25T10:27:50.246Z,27.00
2018-05-25T10:30:18.893Z,27.44
2018-05-25T10:32:47.287Z,27.10
2018-05-25T10:35:16.570Z,26.24
2018-05-25T10:37:44.903Z,26.68
2018-05-25T10:40:13.457Z,26.83
2018-05-25T10:42:41.840Z,26.62
2018-05-25T10:45:10.216Z,26.67
2018-05-25T10:47:38.674Z,27.36
2018-05-25T10:50:07.082Z,26.73
2018-05-25T10:52:35.385Z,26.90
2018-05-25T10:55:03.765Z,26.87
2018-05-25T10:57:32.623Z,26.09
2018-05-25T11:00:00.918Z,26.58
2018-05-25T11:02:29.993Z,27.11
2018-05-25T11:04:58.339Z,27.89
2018-05-25T11:07:26.663Z,27.08
2018-05-25T11:09:54.978Z,26.56
2018-05-25T11:12:23.338Z,26.75
2018-05-25T11:14:53.366Z,27.45
2018-05-25T11:17:23.084Z,27.86
2018-05-25T11:19:51.482Z,26.98
2018-05-25T11:22:19.797Z,27.29
2018-05-25T11:24:48.115Z,26.99
2018-05-25T11:27:16.468Z,27.16
2018-05-25T11:29:44.979Z,27.43
2018-05-25T11:32:13.354Z,27.77
2018-05-25T11:34:41.815Z,28.06
2018-05-25T11:37:10.214Z,27.59
2018-05-25T11:39:38.657Z,27.17
2018-05-25T11:42:07.050Z,25.83
2018-05-25T11:44:35.427Z,25.99
2018-05-25T11:47:03.912Z,26.82
2018-05-25T11:49:32.247Z,26.77
2018-05-25T11:52:00.568Z,27.17
2018-05-25T11:54:28.873Z,26.58
2018-05-25T11:56:57.220Z,26.31
2018-05-25T11:59:25.573Z,26.30
2018-05-25T12:01:53.868Z,25.87
2018-05-25T12:04:23.112Z,26.27
2018-05-25T12:06:51.424Z,26.10
2018-05-25T12:09:19.724Z,25.71
2018-05-25T12:11:48.671Z,25.70
2018-05-25T12:14:16.975Z,26.22
2018-05-25T12:16:45.295Z,27.22
2018-05-25T12:19:14.558Z,27.10
2018-05-25T12:21:42.858Z,26.88
2018-05-25T12:24:11.198Z,26.43
2018-05-25T12:26:41.338Z,26.33
2018-05-25T12:29:09.712Z,26.30
2018-05-25T12:31:38.567Z,25.85
2018-05-25T12:34:07.321Z,26.11
2018-05-25T12:36:35.713Z,25.64
2018-05-25T12:39:04.064Z,25.73
2018-05-25T12:41:32.444Z,26.61
2018-05-25T12:44:00.721Z,26.72
2018-05-25T12:46:29.037Z,26.96
2018-05-25T12:48:57.376Z,27.32
2018-05-25T12:51:25.681Z,26.89
2018-05-25T12:53:54.026Z,26.90
2018-05-25T12:56:22.402Z,26.58
2018-05-25T12:58:51.502Z,26.08
2018-05-25T13:01:19.863Z,26.25
2018-05-25T13:03:49.505Z,26.91
2018-05-25T13:06:17.860Z,27.80
2018-05-25T13:08:46.363Z,28.24
2018-05-25T13:11:15.234Z,28.31
2018-05-25T13:13:43.557Z,28.72
2018-05-25T13:16:12.032Z,28.68
2018-05-25T13:18:40.575Z,28.47
2018-05-25T13:21:08.918Z,28.12
2018-05-25T13:23:37.489Z,27.95
2018-05-25T13:26:06.146Z,27.11
2018-05-25T13:28:34.448Z,26.90
2018-05-25T13:31:02.825Z,26.22
2018-05-25T13:33:31.249Z,26.66
2018-05-25T13:35:59.560Z,27.44
2018-05-25T13:38:27.903Z,27.63
2018-05-25T13:40:56.282Z,26.73
2018-05-25T13:43:24.577Z,27.38
2018-05-25T13:45:52.880Z,27.68
2018-05-25T13:48:21.316Z,27.99
2018-05-25T13:50:49.718Z,27.35
2018-05-25T13:53:18.121Z,26.70
2018-05-25T13:55:46.610Z,27.03
2018-05-25T13:58:14.961Z,27.72
2018-05-25T14:00:44.362Z,26.64
2018-05-25T14:03:13.535Z,26.54
2018-05-25T14:05:42.183Z,26.88
2018-05-25T14:08:10.603Z,26.53
2018-05-25T14:10:39.042Z,26.53
2018-05-25T14:13:07.378Z,26.57
2018-05-25T14:15:35.753Z,26.84
2018-05-25T14:18:05.233Z,26.47
2018-05-25T14:20:33.559Z,26.81
2018-05-25T14:23:01.994Z,27.65
2018-05-25T14:25:31.193Z,27.12
2018-05-25T14:27:59.775Z,26.20
2018-05-25T14:30:28.210Z,25.52
2018-05-25T14:32:56.910Z,25.67
2018-05-25T14:35:25.425Z,25.65
2018-05-25T14:37:53.804Z,25.56
2018-05-25T14:40:22.310Z,26.02
2018-05-25T14:42:51.387Z,26.16
2018-05-25T14:45:20.033Z,25.86
2018-05-25T14:47:48.611Z,25.74
2018-05-25T14:50:16.929Z,25.93
2018-05-25T14:52:45.254Z,26.25
2018-05-25T14:55:14.563Z,25.81
2018-05-25T14:57:42.928Z,25.01
2018-05-25T15:00:11.356Z,25.06
2018-05-25T15:02:40.063Z,25.02
2018-05-25T15:05:08.494Z,25.43
2018-05-25T15:07:36.922Z,26.23
2018-05-25T15:10:05.358Z,25.17
2018-05-25T15:12:33.699Z,25.02
2018-05-25T15:15:02.013Z,25.03
2018-05-25T15:17:31.109Z,25.00
2018-05-25T15:19:59.460Z,24.74
2018-05-25T15:22:27.829Z,25.39
2018-05-25T15:24:56.927Z,24.82
2018-05-25T15:27:25.341Z,24.66
2018-05-25T15:29:53.661Z,25.00
2018-05-25T15:32:22.040Z,25.64
2018-05-25T15:34:50.513Z,25.26
2018-05-25T15:37:18.819Z,24.73
2018-05-25T15:39:47.201Z,24.73
2018-05-25T15:42:15.595Z,24.48
2018-05-25T15:44:44.041Z,24.89
2018-05-25T15:47:12.645Z,24.74
2018-05-25T15:49:40.952Z,25.55
2018-05-25T15:52:09.375Z,25.08
2018-05-25T15:54:37.817Z,25.02
2018-05-25T15:57:06.156Z,24.94
2018-05-25T15:59:34.466Z,24.77
2018-05-25T16:02:03.395Z,24.08
2018-05-25T16:04:32.047Z,24.28
2018-05-25T16:07:00.404Z,24.24
2018-05-25T16:09:30.369Z,24.15
2018-05-25T16:11:58.751Z,24.43
2018-05-25T16:14:27.057Z,24.53
2018-05-25T16:16:55.872Z,24.82
2018-05-25T16:19:24.194Z,24.32
2018-05-25T16:21:52.522Z,24.46
2018-05-25T16:24:20.974Z,24.09
2018-05-25T16:26:49.370Z,24.78
2018-05-25T16:29:17.815Z,25.08
2018-05-25T16:31:46.401Z,24.58
2018-05-25T16:34:14.832Z,24.16
2018-05-25T16:36:43.210Z,23.25
2018-05-25T16:39:11.793Z,23.10
2018-05-25T16:41:40.338Z,22.75
2018-05-25T16:44:08.724Z,22.40
2018-05-25T16:46:37.768Z,22.27
2018-05-25T16:49:06.100Z,22.16
2018-05-25T16:51:34.398Z,21.95
2018-05-25T16:54:03.282Z,21.89
2018-05-25T16:56:31.573Z,21.54
2018-05-25T16:58:59.891Z,21.55
2018-05-25T17:01:28.363Z,21.27
2018-05-25T17:03:56.705Z,21.28
2018-05-25T17:06:25.026Z,20.95
2018-05-25T17:08:54.906Z,20.72
2018-05-25T17:11:23.222Z,20.63
2018-05-25T17:13:51.562Z,20.60
2018-05-25T17:16:20.703Z,20.51
2018-05-25T17:18:49.027Z,20.48
2018-05-25T17:21:17.454Z,20.30
2018-05-25T17:23:46.096Z,20.36
2018-05-25T17:26:14.552Z,20.44
2018-05-25T17:28:42.975Z,20.42
2018-05-25T17:31:12.373Z,20.48
2018-05-25T17:33:40.740Z,20.54
2018-05-25T17:36:09.120Z,20.57
2018-05-25T17:38:37.899Z,20.51
2018-05-25T17:41:06.198Z,20.60
2018-05-25T17:43:34.547Z,20.58
2018-05-25T17:46:03.061Z,20.56
2018-05-25T17:48:31.390Z,20.67
2018-05-25T17:50:59.788Z,20.82
2018-05-25T17:53:28.687Z,20.75
2018-05-25T17:55:57.170Z,20.69
2018-05-25T17:58:25.506Z,20.81
2018-05-25T18:00:54.317Z,20.75
2018-05-25T18:03:23.205Z,20.60
2018-05-25T18:05:51.550Z,20.35
2018-05-25T18:08:20.146Z,20.39
2018-05-25T18:10:48.613Z,20.31
2018-05-25T18:13:17.054Z,20.22
2018-05-25T18:15:46.315Z,20.17
2018-05-25T18:18:14.713Z,20.11
2018-05-25T18:20:43.187Z,20.09
2018-05-25T18:23:11.749Z,20.00
2018-05-25T18:25:40.131Z,19.86
2018-05-25T18:28:08.709Z,19.95
2018-05-25T18:30:37.337Z,19.82
2018-05-25T18:33:05.716Z,19.78
2018-05-25T18:35:34.050Z,19.73
2018-05-25T18:38:02.681Z,19.63
2018-05-25T18:40:31.229Z,19.56
2018-05-25T18:42:59.616Z,19.45
2018-05-25T18:45:27.956Z,19.37
2018-05-25T18:47:56.301Z,19.31
2018-05-25T18:50:24.634Z,19.28
2018-05-25T18:52:53.760Z,19.27
2018-05-25T18:55:22.136Z,19.21
2018-05-25T18:57:51.045Z,19.12
2018-05-25T19:00:19.416Z,19.06
2018-05-25T19:02:47.747Z,18.94
2018-05-25T19:05:16.872Z,18.82
2018-05-25T19:07:45.301Z,18.73
2018-05-25T19:10:13.706Z,18.77
2018-05-25T19:12:42.207Z,18.51
2018-05-25T19:15:10.837Z,18.64
2018-05-25T19:17:39.921Z,18.49
2018-05-25T19:20:08.455Z,18.42
2018-05-25T19:22:37.191Z,18.48
2018-05-25T19:25:05.658Z,18.49
2018-05-25T19:27:34.297Z,18.42
2018-05-25T19:30:03.147Z,18.38
2018-05-25T19:32:31.461Z,18.40
2018-05-25T19:34:59.804Z,18.37
2018-05-25T19:37:28.447Z,18.32
2018-05-25T19:39:56.802Z,18.33
2018-05-25T19:42:25.112Z,18.25
2018-05-25T19:44:53.534Z,18.36
2018-05-25T19:47:21.860Z,18.36
2018-05-25T19:49:50.217Z,18.37
2018-05-25T19:52:19.415Z,18.22
2018-05-25T19:54:47.725Z,18.20
2018-05-25T19:57:16.101Z,18.22
2018-05-25T19:59:44.454Z,18.21
2018-05-25T20:02:12.935Z,18.08
2018-05-25T20:04:41.382Z,18.20
2018-05-25T20:07:09.799Z,18.15
2018-05-25T20:09:38.620Z,18.06
2018-05-25T20:12:07.381Z,18.00
2018-05-25T20:14:35.861Z,17.95
2018-05-25T20:17:04.296Z,17.94
2018-05-25T20:19:32.607Z,17.86
2018-05-25T20:22:01.891Z,17.77
2018-05-25T20:24:30.193Z,17.73
2018-05-25T20:26:58.569Z,17.68
2018-05-25T20:29:27.053Z,17.61
2018-05-25T20:31:55.370Z,17.55
2018-05-25T20:34:23.683Z,17.46
2018-05-25T20:36:52.345Z,17.49
2018-05-25T20:39:20.659Z,17.45
2018-05-25T20:41:49.047Z,17.26
2018-05-25T20:44:17.653Z,17.30
2018-05-25T20:46:46.003Z,17.26
2018-05-25T20:49:14.377Z,17.23
2018-05-25T20:51:43.173Z,17.13
2018-05-25T20:54:11.660Z,17.17
2018-05-25T20:56:40.187Z,17.15
2018-05-25T20:59:08.733Z,17.09
2018-05-25T21:01:38.307Z,17.06
2018-05-25T21:04:06.709Z,17.02
2018-05-25T21:06:35.093Z,17.00
2018-05-25T21:09:03.448Z,16.91
2018-05-25T21:11:32.002Z,16.90
2018-05-25T21:14:00.626Z,16.91
2018-05-25T21:16:29.092Z,16.87
2018-05-25T21:18:58.451Z,16.85
2018-05-25T21:21:27.034Z,16.77
2018-05-25T21:23:55.768Z,16.74
2018-05-25T21:26:24.114Z,16.76
2018-05-25T21:28:53.159Z,16.71
2018-05-25T21:31:21.453Z,16.69
2018-05-25T21:33:49.796Z,16.65
2018-05-25T21:36:18.655Z,16.58
2018-05-25T21:38:47.092Z,16.47
2018-05-25T21:41:15.505Z,16.51
2018-05-25T21:43:44.239Z,16.49
2018-05-25T21:46:12.585Z,16.47
2018-05-25T21:48:41.048Z,16.41
2018-05-25T21:51:10.465Z,16.47
2018-05-25T21:53:39.150Z,16.46
2018-05-25T21:56:07.820Z,16.43
2018-05-25T21:58:36.391Z,16.39
2018-05-25T22:01:05.009Z,16.36
2018-05-25T22:03:33.468Z,16.36
2018-05-25T22:06:01.805Z,16.35
2018-05-25T22:08:30.119Z,16.39
2018-05-25T22:10:58.444Z,16.30
2018-05-25T22:13:27.368Z,16.21
2018-05-25T22:15:55.716Z,16.19
2018-05-25T22:18:24.026Z,16.15
2018-05-25T22:20:52.776Z,16.07
2018-05-25T22:23:21.464Z,16.04
2018-05-25T22:25:49.953Z,16.07
2018-05-25T22:28:18.703Z,15.89
2018-05-25T22:30:47.024Z,15.87
2018-05-25T22:33:15.385Z,15.92
2018-05-25T22:35:44.354Z,15.86
2018-05-25T22:38:12.697Z,15.79
2018-05-25T22:40:41.270Z,15.68
2018-05-25T22:43:21.809Z,15.69
2018-05-25T22:46:01.976Z,15.69
2018-05-25T22:48:42.743Z,15.64
2018-05-25T22:51:23.089Z,15.57
2018-05-25T22:53:56.387Z,15.54
2018-05-25T22:56:24.722Z,15.49
2018-05-25T22:58:53.368Z,15.40
2018-05-25T23:01:21.943Z,15.41
2018-05-25T23:03:50.467Z,15.39
2018-05-25T23:06:18.792Z,15.42
2018-05-25T23:08:47.717Z,15.40
2018-05-25T23:11:16.367Z,15.44
2018-05-25T23:13:44.922Z,15.31
2018-05-25T23:16:13.655Z,15.18
2018-05-25T23:18:42.344Z,15.24
2018-05-25T23:21:11.424Z,15.19
2018-05-25T23:23:40.887Z,15.20
2018-05-25T23:26:09.529Z,15.16
2018-05-25T23:28:38.010Z,15.13
2018-05-25T23:31:07.913Z,15.14
2018-05-25T23:33:36.325Z,15.15
2018-05-25T23:36:04.641Z,15.15
2018-05-25T23:38:33.105Z,15.06
2018-05-25T23:41:01.414Z,15.16
2018-05-25T23:43:29.843Z,15.09
2018-05-25T23:45:59.014Z,14.91
2018-05-25T23:48:27.388Z,14.97
2018-05-25T23:50:55.754Z,14.85
2018-05-25T23:53:24.131Z,14.86
2018-05-25T23:55:52.466Z,14.65
2018-05-25T23:58:20.804Z,14.75
